Flight Track Log - Related Links

Times and Time Zones

All times are in EDT time to prevent confusion due to time zone crossing. See the JBU41 flight status page for this flight to view local times or setup timezone preferences in your user account.

Time Position Orientation Groundspeed Altitude Reporting Facility
EDT Latitude Longitude Course Direction KTS MPH feet Rate Location/Type
Fri 10:56:19 AM 40.6000 -73.8000 218° Southwest 172 198 1,900  Level New York TRACON
Fri 10:58:00 AM 39.5387 -73.8566 221° Southwest  Level FlightAware Approximate
Fri 10:58:05 AM 40.5425 -73.6822 123° Southeast 233 268 5,300  Level New York Center
Fri 10:59:00 AM 39.4683 -73.9371 222° Southwest  Level FlightAware Approximate
Fri 10:59:07 AM 40.4756 -73.6111 141° Southeast 269 310 8,800  Level New York Center
Fri 11:00:00 AM 39.3984 -74.0183 218° Southwest  Level FlightAware Approximate
Fri 11:00:07 AM 40.4122 -73.5569 147° Southeast 294 338 10,800  Level New York Center
Fri 11:01:00 AM 39.3241 -74.0928 218° Southwest  Level FlightAware Approximate
Fri 11:01:06 AM 40.3064 -73.5389 173° South 329 379 12,000  Level New York Center
Fri 11:02:07 AM 40.2086 -73.5269 175° South 386 444 13,800 1,934 Climbing New York Center
Fri 11:03:07 AM 40.0817 -73.5164 176° South 418 481 15,900 1,916 Climbing New York Center
Fri 11:04:06 AM 39.9844 -73.5719 204° Southwest 409 471 17,600 1,651 Climbing New York Center
Fri 11:05:36 AM 39.8256 -73.7031 212° Southwest 409 471 20,000 1,673 Climbing Washington Center
Fri 11:06:33 AM 39.7186 -73.7842 210° Southwest 437 503 21,700 1,475 Climbing Washington Center
Fri 11:07:34 AM 39.6133 -73.8622 210° Southwest 443 510 22,900 1,190 Climbing Washington Center
Fri 11:08:34 AM 39.5022 -73.9483 211° Southwest 448 516 24,100 1,140 Climbing Washington Center
Fri 11:09:35 AM 39.3928 -74.0367 212° Southwest 455 524 25,200 1,109 Climbing Washington Center
Fri 11:10:33 AM 39.2814 -74.1275 212° Southwest 468 539 26,300 814 Climbing Washington Center
Fri 11:11:33 AM 39.1722 -74.2208 214° Southwest 473 544 26,800 595 Climbing Washington Center
Fri 11:12:34 AM 39.0586 -74.3139 212° Southwest 478 550 27,500 843 Climbing Washington Center
Fri 11:13:34 AM 38.9447 -74.4039 212° Southwest 478 550 28,500 942 Climbing Washington Center
Fri 11:14:35 AM 38.8475 -74.4828 212° Southwest 478 550 29,400 1,488 Climbing Washington Center
Fri 11:15:35 AM 38.7358 -74.5750 213° Southwest 473 544 31,500 1,636 Climbing Washington Center
Fri 11:16:36 AM 38.6303 -74.6614 213° Southwest 473 544 32,700 1,017 Climbing Washington Center
Fri 11:17:33 AM 38.5244 -74.7478 213° Southwest 466 536 33,500 661 Climbing Washington Center
Fri 11:18:34 AM 38.4167 -74.8339 212° Southwest 466 536 34,000 248 Climbing Washington Center
Fri 11:19:34 AM 38.3006 -74.9303 213° Southwest 466 536 34,000  Level Washington Center
Fri 11:20:33 AM 38.1864 -75.0158 211° Southwest 466 536 34,000 -250 Level Washington Center
Fri 11:21:34 AM 38.0783 -75.1036 213° Southwest 471 542 33,500 -595 Descending Washington Center
Fri 11:22:34 AM 37.9681 -75.1914 212° Southwest 477 549 32,800 -694 Descending Washington Center
Fri 11:23:35 AM 37.8558 -75.2814 212° Southwest 477 549 32,100 -706 Descending Washington Center
Fri 11:24:33 AM 37.7411 -75.3686 211° Southwest 477 549 31,400 -655 Descending Washington Center
Fri 11:25:34 AM 37.6286 -75.4556 211° Southwest 477 549 30,800 -639 Descending Washington Center
Fri 11:26:35 AM 37.5183 -75.5447 213° Southwest 477 549 30,100 -397 Descending Washington Center
Fri 11:27:35 AM 37.4056 -75.6258 210° Southwest 477 549 30,000 -50 Descending Washington Center
Fri 11:28:35 AM 37.2950 -75.7119 212° Southwest 477 549 30,000  Level Washington Center
Fri 11:29:33 AM 37.1822 -75.8003 212° Southwest 477 549 30,000 -50 Level Washington Center
Fri 11:30:34 AM 37.0714 -75.8833 211° Southwest 477 549 29,900  Descending Washington Center
Fri 11:31:34 AM 36.9650 -75.9583 209° Southwest 483 556 30,000  Climbing Washington Center
Fri 11:32:35 AM 36.8542 -76.0461 212° Southwest 489 563 29,900 -496 Descending Washington Center
Fri 11:33:35 AM 36.7389 -76.1311 211° Southwest 497 572 29,000 -966 Descending Washington Center
Fri 11:34:33 AM 36.6175 -76.2258 212° Southwest 485 558 28,000 -508 Descending Washington Center
Fri 11:35:33 AM 36.5022 -76.3103 210° Southwest 485 558 28,000  Level Washington Center
Fri 11:36:34 AM 36.3892 -76.3944 211° Southwest 485 558 28,000  Level Washington Center
Fri 11:37:34 AM 36.2739 -76.4808 211° Southwest 485 558 28,000  Level Washington Center
Fri 11:38:35 AM 36.1561 -76.5669 211° Southwest 490 564 28,000  Level Washington Center
Fri 11:39:33 AM 36.0514 -76.6453 211° Southwest 495 570 28,000  Level Washington Center
Fri 11:40:34 AM 35.9253 -76.7386 211° Southwest 495 570 28,000  Level Washington Center
Fri 11:41:34 AM 35.8181 -76.8139 210° Southwest 490 564 28,000  Level Washington Center
Fri 11:42:35 AM 35.6961 -76.9067 212° Southwest 490 564 28,000  Level Washington Center
Fri 11:43:33 AM 35.5867 -76.9892 212° Southwest 479 551 28,000  Level Washington Center
Fri 11:44:34 AM 35.4731 -77.0714 211° Southwest 479 551 28,000  Level Washington Center
Fri 11:45:34 AM 35.3633 -77.1533 211° Southwest 479 551 28,000  Level Washington Center
Fri 11:46:35 AM 35.2497 -77.2325 210° Southwest 479 551 28,000  Level Washington Center
Fri 11:47:35 AM 35.1339 -77.3139 210° Southwest 479 551 28,000  Level Washington Center
Fri 11:48:36 AM 35.0219 -77.3953 211° Southwest 479 551 28,000  Level Washington Center
Fri 11:49:33 AM 34.9250 -77.4667 211° Southwest 473 544 28,000  Level Washington Center
Fri 11:50:33 AM 34.8131 -77.5500 211° Southwest 473 544 28,000  Level Washington Center
Fri 11:51:34 AM 34.6992 -77.6281 209° Southwest 478 550 28,000  Level Washington Center
Fri 11:52:35 AM 34.5892 -77.7086 211° Southwest 478 550 28,000 -50 Level Washington Center
Fri 11:53:35 AM 34.4772 -77.7889 211° Southwest 478 550 27,900  Descending Washington Center
Fri 11:54:33 AM 34.3631 -77.8639 208° Southwest 478 550 28,000 51 Climbing Washington Center
Fri 11:55:33 AM 34.2350 -77.9056 195° South 467 537 28,000  Level Washington Center
Fri 11:59:39 AM 33.6981 -78.0622 194° South 470 541 28,000  Level Jacksonville Center
Fri 12:00:39 PM 33.5825 -78.0961 194° South 481 554 28,000  Level Jacksonville Center
Fri 12:01:39 PM 33.4525 -78.1356 194° South 487 560 28,000  Level Jacksonville Center
Fri 12:02:39 PM 33.3222 -78.1697 192° South 487 560 28,000  Level Jacksonville Center
Fri 12:03:39 PM 33.1903 -78.2067 193° South 487 560 28,000  Level Jacksonville Center
Fri 12:04:39 PM 33.0622 -78.2456 194° South 487 560 28,000  Level Jacksonville Center
Fri 12:05:39 PM 32.9300 -78.2794 192° South 487 560 28,000  Level Jacksonville Center
Fri 12:06:39 PM 32.7978 -78.3161 193° South 487 560 28,000  Level Jacksonville Center
Fri 12:07:39 PM 32.6675 -78.3522 193° South 487 560 28,000  Level Jacksonville Center
Fri 12:08:39 PM 32.5353 -78.3883 193° South 487 560 28,000  Level Jacksonville Center
Fri 12:09:39 PM 32.4031 -78.4269 194° South 487 560 28,000 -50 Level Jacksonville Center
Fri 12:10:39 PM 32.2586 -78.4733 195° South 487 560 27,900  Descending Jacksonville Center
Fri 12:11:39 PM 32.1261 -78.5117 194° South 487 560 28,000 50 Climbing Jacksonville Center
Fri 12:12:39 PM 31.9961 -78.5519 195° South 487 560 28,000 -50 Level Jacksonville Center
Fri 12:13:39 PM 31.8658 -78.5875 193° South 487 560 27,900  Descending Jacksonville Center
Fri 12:14:39 PM 31.7336 -78.6256 194° South 487 560 28,000 50 Climbing Jacksonville Center
Fri 12:15:39 PM 31.5972 -78.6658 194° South 493 567 28,000  Level Jacksonville Center
Fri 12:16:39 PM 31.4669 -78.7033 194° South 488 562 28,000  Level Jacksonville Center
Fri 12:17:39 PM 31.3347 -78.7458 195° South 488 562 28,000  Level Jacksonville Center
Fri 12:18:39 PM 31.2081 -78.7708 190° South 485 558 28,000  Level Jacksonville Center
Fri 12:19:39 PM 31.0717 -78.8156 196° South 492 566 28,000  Level Jacksonville Center
Fri 12:20:39 PM 30.9394 -78.8528 194° South 487 560 28,000  Level Jacksonville Center
Fri 12:21:39 PM 30.8047 -78.8875 192° South 492 566 28,000  Level Jacksonville Center
Fri 12:23:34 PM 30.5672 -78.9558 194° South 488 562 28,000 -34 Level Miami Center
Fri 12:24:34 PM 30.4394 -78.9917 194° South 488 562 27,900  Descending Miami Center
Fri 12:25:34 PM 30.3072 -79.0444 199° South 489 563 28,000 50 Climbing Miami Center
Fri 12:26:34 PM 30.1878 -79.0994 202° Southwest 484 557 28,000  Level Miami Center
Fri 12:27:34 PM 30.0597 -79.1567 201° Southwest 490 564 28,000  Level Miami Center
Fri 12:28:34 PM 29.9314 -79.2161 202° Southwest 490 564 28,000  Level Miami Center
Fri 12:29:34 PM 29.8056 -79.2683 200° South 490 564 28,000  Level Miami Center
Fri 12:30:34 PM 29.6836 -79.3278 203° Southwest 490 564 28,000  Level Miami Center
Fri 12:31:34 PM 29.5556 -79.3772 199° South 490 564 28,000  Level Miami Center
Fri 12:32:34 PM 29.4272 -79.4292 199° South 490 564 28,000 -200 Level Miami Center
Fri 12:33:34 PM 29.3031 -79.4906 203° Southwest 490 564 27,600 -700 Descending Miami Center
Fri 12:34:34 PM 29.1931 -79.5758 214° Southwest 485 558 26,600 -1,000 Descending Miami Center
Fri 12:35:34 PM 29.0992 -79.6828 225° Southwest 485 558 25,600 -1,000 Descending Miami Center
Fri 12:36:34 PM 29.0278 -79.8092 237° Southwest 473 544 24,600 -950 Descending Miami Center
Fri 12:37:34 PM 28.9789 -79.9525 249° West 478 550 23,700 -1,400 Descending Miami Center
Fri 12:38:34 PM 28.9339 -80.0936 250° West 478 550 21,800 -2,600 Descending Miami Center
Fri 12:39:34 PM 28.8933 -80.2275 251° West 470 541 18,500 -2,718 Descending Miami Center
Fri 12:41:24 PM 28.8167 -80.4833 251° West 411 473 14,100 -1,800 Descending Orlando TRACON
Fri 12:42:24 PM 28.8000 -80.6000 261° West 408 470 13,400 -1,835 Descending Orlando TRACON
Fri 12:43:25 PM 28.7833 -80.7333 262° West 395 455 10,400 -1,774 Descending Orlando TRACON
Fri 12:44:19 PM 28.7833 -80.8333 270° West 332 382 10,000 -150 Descending Orlando TRACON
Fri 12:45:25 PM 28.7667 -80.9333 259° West 288 331 10,100 -545 Climbing Orlando TRACON
Fri 12:46:31 PM 28.7500 -81.0167 257° West 283 326 8,800 -1,700 Descending Orlando TRACON
Fri 12:47:25 PM 28.7333 -81.1000 257° West 273 314 6,700 -1,550 Descending Orlando TRACON
Fri 12:48:31 PM 28.7333 -81.1833 270° West 242 278 5,700 -1,087 Descending Orlando TRACON
Fri 12:49:32 PM 28.6833 -81.2333 221° Southwest 210 242 4,400 -939 Descending Orlando TRACON
Fri 12:50:26 PM 28.6333 -81.2667 210° Southwest 216 249 3,900 -1,000 Descending Orlando TRACON
Fri 12:51:26 PM 28.5833 -81.3000 210° Southwest 214 246 2,500 -682 Descending Orlando TRACON
Fri 12:52:38 PM 28.5333 -81.3333 210° Southwest 158 182 2,400 -550 Descending Orlando TRACON
Fri 12:53:26 PM 28.5000 -81.3333 180° South 141 162 1,400 -1,107 Descending Orlando TRACON
Fri 12:54:21 PM 28.4667 -81.3333 180° South 137 158 500 -982 Descending Orlando TRACON

Login

Don't have an account? Register now (free) for customized features, flight alerts, and more!